createdAt,value
2022-09-17T00:01:28.491Z,100357.31
2022-09-17T00:04:00.546Z,100358.41
2022-09-17T00:06:28.380Z,100345.94
2022-09-17T00:08:56.275Z,100338.94
2022-09-17T00:11:28.195Z,100353.81
2022-09-17T00:13:56.595Z,100343.25
2022-09-17T00:16:29.854Z,100350.56
2022-09-17T00:18:58.532Z,100348.94
2022-09-17T00:21:26.576Z,100350.28
2022-09-17T00:24:02.834Z,100352.44
2022-09-17T00:26:31.591Z,100357.28
2022-09-17T00:29:00.465Z,100364.34
2022-09-17T00:31:29.882Z,100363.25
2022-09-17T00:33:59.291Z,100375.13
2022-09-17T00:36:27.067Z,100375.94
2022-09-17T00:38:57.501Z,100366.50
2022-09-17T00:41:27.486Z,100368.63
2022-09-17T00:43:58.169Z,100379.44
2022-09-17T00:46:25.642Z,100373.78
2022-09-17T00:48:55.504Z,100369.44
2022-09-17T00:52:00.465Z,100381.34
2022-09-17T00:54:28.889Z,100379.47
2022-09-17T00:57:00.681Z,100379.19
2022-09-17T00:59:28.983Z,100381.59
2022-09-17T01:01:56.548Z,100383.78
2022-09-17T01:04:26.895Z,100382.13
2022-09-17T01:07:18.914Z,100382.13
2022-09-17T01:10:07.265Z,100371.31
2022-09-17T01:12:44.114Z,100378.63
2022-09-17T01:15:33.392Z,100371.91
2022-09-17T01:18:09.771Z,100372.44
2022-09-17T01:21:23.671Z,100375.66
2022-09-17T01:24:05.115Z,100373.78
2022-09-17T01:27:01.116Z,100377.28
2022-09-17T01:29:42.028Z,100387.00
2022-09-17T01:32:13.022Z,100378.38
2022-09-17T01:35:11.100Z,100373.00
2022-09-17T01:38:06.744Z,100375.41
2022-09-17T01:40:46.220Z,100380.53
2022-09-17T01:43:27.837Z,100385.41
2022-09-17T01:46:01.615Z,100382.69
2022-09-17T01:48:35.863Z,100381.63
2022-09-17T01:51:11.108Z,100391.34
2022-09-17T01:54:00.596Z,100386.75
2022-09-17T01:56:39.850Z,100394.03
2022-09-17T01:59:28.120Z,100392.94
2022-09-17T02:02:03.452Z,100391.31
2022-09-17T02:04:37.513Z,100394.03
2022-09-17T02:07:11.460Z,100391.06
2022-09-17T02:09:53.672Z,100402.41
2022-09-17T02:12:27.865Z,100394.84
2022-09-17T02:14:59.364Z,100400.81
2022-09-17T02:17:29.513Z,100395.13
2022-09-17T02:19:59.863Z,100405.63
2022-09-17T02:22:50.657Z,100409.41
2022-09-17T02:25:29.388Z,100411.84
2022-09-17T02:28:04.321Z,100416.94
2022-09-17T02:30:32.829Z,100422.66
2022-09-17T02:33:05.733Z,100423.72
2022-09-17T02:35:34.734Z,100427.22
2022-09-17T02:38:02.263Z,100428.03
2022-09-17T02:40:36.365Z,100426.91
2022-09-17T02:43:20.577Z,100437.72
2022-09-17T02:46:00.204Z,100437.72
2022-09-17T02:48:45.733Z,100443.41
2022-09-17T02:51:21.892Z,100443.66
2022-09-17T02:53:59.461Z,100447.44
2022-09-17T02:56:34.357Z,100449.06
2022-09-17T02:59:12.691Z,100445.28
2022-09-17T03:01:45.239Z,100448.50
2022-09-17T03:04:16.280Z,100446.91
2022-09-17T03:06:46.627Z,100441.81
2022-09-17T03:09:17.170Z,100448.00
2022-09-17T03:11:44.754Z,100453.69
2022-09-17T03:14:12.207Z,100453.44
2022-09-17T03:16:39.715Z,100453.47
2022-09-17T03:19:07.189Z,100458.06
2022-09-17T03:21:34.616Z,100459.69
2022-09-17T03:24:02.351Z,100470.25
2022-09-17T03:26:30.610Z,100466.19
2022-09-17T03:28:59.141Z,100464.84
2022-09-17T03:31:26.798Z,100461.88
2022-09-17T03:33:54.331Z,100472.09
2022-09-17T03:36:21.804Z,100464.28
2022-09-17T03:38:49.241Z,100476.69
2022-09-17T03:41:16.650Z,100474.81
2022-09-17T03:43:44.065Z,100477.50
2022-09-17T03:46:11.550Z,100484.78
2022-09-17T03:48:39.984Z,100478.28
2022-09-17T03:51:07.855Z,100470.72
2022-09-17T03:53:35.578Z,100485.84
2022-09-17T03:56:05.094Z,100480.94
2022-09-17T03:58:33.605Z,100478.47
2022-09-17T04:01:04.949Z,100490.38
2022-09-17T04:03:33.219Z,100491.19
2022-09-17T04:06:00.931Z,100478.72
2022-09-17T04:08:28.429Z,100490.88
2022-09-17T04:10:55.935Z,100493.56
2022-09-17T04:13:23.410Z,100493.25
2022-09-17T04:15:52.388Z,100499.97
2022-09-17T04:18:19.957Z,100494.28
2022-09-17T04:20:47.424Z,100491.19
2022-09-17T04:23:15.054Z,100482.34
2022-09-17T04:25:43.230Z,100484.81
2022-09-17T04:28:10.939Z,100486.84
2022-09-17T04:30:40.127Z,100488.75
2022-09-17T04:33:10.789Z,100498.09
2022-09-17T04:35:38.548Z,100490.88
2022-09-17T04:38:06.218Z,100495.16
2022-09-17T04:40:33.907Z,100489.81
2022-09-17T04:43:03.431Z,100490.06
2022-09-17T04:45:33.737Z,100493.75
2022-09-17T04:48:02.176Z,100490.16
2022-09-17T04:50:30.964Z,100490.81
2022-09-17T04:53:01.511Z,100487.28
2022-09-17T04:55:31.532Z,100498.84
2022-09-17T04:57:59.323Z,100497.16
2022-09-17T05:00:26.827Z,100488.56
2022-09-17T05:02:55.741Z,100491.19
2022-09-17T05:05:24.379Z,100487.56
2022-09-17T05:07:54.443Z,100493.78
2022-09-17T05:10:23.113Z,100488.31
2022-09-17T05:12:56.417Z,100499.63
2022-09-17T05:15:25.577Z,100497.03
2022-09-17T05:17:53.160Z,100498.72
2022-09-17T05:20:20.837Z,100506.66
2022-09-17T05:22:51.678Z,100517.28
2022-09-17T05:25:24.784Z,100520.00
2022-09-17T05:27:56.549Z,100509.19
2022-09-17T05:30:24.088Z,100523.97
2022-09-17T05:33:00.102Z,100525.31
2022-09-17T05:35:29.831Z,100527.34
2022-09-17T05:38:03.221Z,100523.66
2022-09-17T05:40:31.681Z,100533.22
2022-09-17T05:43:00.427Z,100531.78
2022-09-17T05:45:28.472Z,100548.81
2022-09-17T05:47:57.591Z,100552.81
2022-09-17T05:50:26.601Z,100554.56
2022-09-17T05:52:54.788Z,100555.81
2022-09-17T05:55:24.276Z,100557.56
2022-09-17T05:57:53.203Z,100559.78
2022-09-17T06:00:23.689Z,100559.78
2022-09-17T06:02:58.143Z,100561.53
2022-09-17T06:05:25.735Z,100572.63
2022-09-17T06:07:53.234Z,100575.25
2022-09-17T06:10:21.015Z,100573.31
2022-09-17T06:12:59.554Z,100577.84
2022-09-17T06:15:28.390Z,100575.94
2022-09-17T06:17:55.891Z,100589.38
2022-09-17T06:20:23.348Z,100583.13
2022-09-17T06:22:58.832Z,100592.50
2022-09-17T06:25:26.913Z,100588.97
2022-09-17T06:27:54.343Z,100595.66
2022-09-17T06:30:21.839Z,100603.69
2022-09-17T06:32:49.312Z,100597.56
2022-09-17T06:35:16.871Z,100600.09
2022-09-17T06:37:44.907Z,100601.13
2022-09-17T06:40:12.451Z,100608.97
2022-09-17T06:42:41.471Z,100608.75
2022-09-17T06:45:13.252Z,100611.00
2022-09-17T06:47:43.330Z,100620.31
2022-09-17T06:50:11.266Z,100623.44
2022-09-17T06:52:38.970Z,100625.13
2022-09-17T06:55:06.648Z,100628.78
2022-09-17T06:57:34.108Z,100628.69
2022-09-17T07:00:01.686Z,100630.63
2022-09-17T07:02:30.356Z,100634.38
2022-09-17T07:04:58.034Z,100628.66
2022-09-17T07:07:25.577Z,100630.19
2022-09-17T07:09:53.999Z,100622.78
2022-09-17T07:12:22.551Z,100628.06
2022-09-17T07:14:51.772Z,100630.66
2022-09-17T07:17:20.894Z,100634.56
2022-09-17T07:19:48.922Z,100634.28
2022-09-17T07:22:16.830Z,100632.16
2022-09-17T07:24:44.647Z,100633.72
2022-09-17T07:27:12.411Z,100637.34
2022-09-17T07:29:41.648Z,100643.84
2022-09-17T07:32:09.144Z,100644.03
2022-09-17T07:34:36.618Z,100639.31
2022-09-17T07:37:04.264Z,100642.88
2022-09-17T07:39:32.272Z,100640.84
2022-09-17T07:42:00.053Z,100644.09
2022-09-17T07:44:28.663Z,100647.00
2022-09-17T07:46:56.232Z,100640.78
2022-09-17T07:49:23.750Z,100648.63
2022-09-17T07:51:51.354Z,100639.56
2022-09-17T07:54:18.818Z,100645.59
2022-09-17T07:56:46.394Z,100635.47
2022-09-17T07:59:16.572Z,100636.53
2022-09-17T08:01:44.838Z,100638.47
2022-09-17T08:04:12.374Z,100643.34
2022-09-17T08:06:41.330Z,100649.22
2022-09-17T08:09:11.027Z,100649.03
2022-09-17T08:11:55.109Z,100661.16
2022-09-17T08:14:28.502Z,100669.41
2022-09-17T08:16:57.486Z,100662.06
2022-09-17T08:19:25.815Z,100658.13
2022-09-17T08:21:53.347Z,100648.84
2022-09-17T08:24:21.971Z,100656.50
2022-09-17T08:26:49.412Z,100658.19
2022-09-17T08:29:17.139Z,100660.22
2022-09-17T08:31:44.749Z,100650.13
2022-09-17T08:34:12.350Z,100650.31
2022-09-17T08:36:40.082Z,100653.44
2022-09-17T08:39:08.492Z,100647.38
2022-09-17T08:42:05.709Z,100663.97
2022-09-17T08:44:46.331Z,100666.19
2022-09-17T08:47:26.068Z,100681.22
2022-09-17T08:49:59.820Z,100675.06
2022-09-17T08:52:59.755Z,100667.06
2022-09-17T08:55:37.467Z,100668.91
2022-09-17T08:58:13.918Z,100680.88
2022-09-17T09:00:53.678Z,100675.97
2022-09-17T09:03:52.032Z,100680.34
2022-09-17T09:06:23.528Z,100682.50
2022-09-17T09:08:57.352Z,100682.28
2022-09-17T09:11:28.251Z,100690.63
2022-09-17T09:14:12.569Z,100678.41
2022-09-17T09:16:46.071Z,100683.75
2022-09-17T09:19:23.444Z,100674.03
2022-09-17T09:22:40.707Z,100687.25
2022-09-17T09:25:25.214Z,100680.91
2022-09-17T09:28:10.848Z,100687.91
2022-09-17T09:31:07.576Z,100688.34
2022-09-17T09:33:45.623Z,100692.47
2022-09-17T09:36:16.978Z,100693.56
2022-09-17T09:38:50.668Z,100692.81
2022-09-17T09:41:40.953Z,100684.88
2022-09-17T09:44:14.444Z,100692.16
2022-09-17T09:47:05.398Z,100702.16
2022-09-17T09:50:01.151Z,100703.25
2022-09-17T09:53:00.134Z,100696.59
2022-09-17T09:55:59.155Z,100706.56
2022-09-17T09:58:40.774Z,100700.94
2022-09-17T10:01:11.236Z,100706.78
2022-09-17T10:03:46.436Z,100692.69
2022-09-17T10:06:17.149Z,100697.22
2022-09-17T10:08:50.836Z,100693.16
2022-09-17T10:11:27.042Z,100698.78
2022-09-17T10:14:15.663Z,100706.00
2022-09-17T10:16:43.297Z,100703.41
2022-09-17T10:19:13.835Z,100715.66
2022-09-17T10:21:44.633Z,100715.97
2022-09-17T10:24:25.538Z,100713.72
2022-09-17T10:27:02.847Z,100718.44
2022-09-17T10:29:30.680Z,100696.16
2022-09-17T10:31:59.261Z,100717.81
2022-09-17T10:34:27.956Z,100725.59
2022-09-17T10:36:56.955Z,100727.22
2022-09-17T10:39:27.866Z,100725.00
2022-09-17T10:41:58.480Z,100736.28
2022-09-17T10:44:35.076Z,100733.88
2022-09-17T10:47:14.872Z,100732.06
2022-09-17T10:49:48.818Z,100733.81
2022-09-17T10:52:31.074Z,100737.50
2022-09-17T10:55:19.159Z,100741.97
2022-09-17T10:58:07.752Z,100744.88
2022-09-17T11:01:08.453Z,100745.50
2022-09-17T11:03:38.636Z,100741.31
2022-09-17T11:06:21.228Z,100741.31
2022-09-17T11:09:07.013Z,100746.28
2022-09-17T11:11:59.769Z,100747.72
2022-09-17T11:14:36.275Z,100752.91
2022-09-17T11:17:09.566Z,100746.50
2022-09-17T11:19:58.786Z,100740.75
2022-09-17T11:22:35.472Z,100737.09
2022-09-17T11:25:31.408Z,100739.66
2022-09-17T11:28:24.750Z,100738.88
2022-09-17T11:31:24.294Z,100743.72
2022-09-17T11:34:00.876Z,100744.66
2022-09-17T11:36:38.811Z,100757.56
2022-09-17T11:39:16.302Z,100742.72
2022-09-17T11:41:49.074Z,100746.59
2022-09-17T11:44:24.890Z,100748.50
2022-09-17T11:46:56.583Z,100742.84
2022-09-17T11:49:42.199Z,100749.44
2022-09-17T11:52:19.583Z,100755.84
2022-09-17T11:54:50.043Z,100757.66
2022-09-17T11:57:22.003Z,100760.81
2022-09-17T11:59:58.671Z,100768.00
2022-09-17T12:03:07.022Z,100761.66
2022-09-17T12:05:43.499Z,100768.84
2022-09-17T12:08:48.737Z,100766.06
2022-09-17T12:11:27.818Z,100763.28
2022-09-17T12:14:04.991Z,100765.28
2022-09-17T12:16:45.221Z,100780.91
2022-09-17T12:19:25.821Z,100778.56
2022-09-17T12:22:25.387Z,100774.59
2022-09-17T12:24:54.194Z,100774.91
2022-09-17T12:27:38.171Z,100781.00
2022-09-17T12:30:13.515Z,100789.75
2022-09-17T12:32:50.493Z,100792.34
2022-09-17T12:36:03.006Z,100794.72
2022-09-17T12:38:50.712Z,100796.41
2022-09-17T12:41:30.063Z,100802.94
2022-09-17T12:43:58.935Z,100801.81
2022-09-17T12:46:44.496Z,100803.22
2022-09-17T12:49:32.919Z,100811.06
2022-09-17T12:52:36.223Z,100808.78
2022-09-17T12:55:09.457Z,100808.63
2022-09-17T12:57:59.409Z,100805.50
2022-09-17T13:00:27.962Z,100814.66
2022-09-17T13:03:08.609Z,100818.19
2022-09-17T13:05:57.823Z,100814.16
2022-09-17T13:08:56.692Z,100808.69
2022-09-17T13:11:26.899Z,100803.28
2022-09-17T13:14:02.454Z,100814.28
2022-09-17T13:16:48.465Z,100808.06
2022-09-17T13:19:18.870Z,100797.38
2022-09-17T13:22:20.424Z,100800.47
2022-09-17T13:25:02.657Z,100813.47
2022-09-17T13:27:31.312Z,100816.72
2022-09-17T13:30:00.500Z,100814.72
2022-09-17T13:32:33.993Z,100810.44
2022-09-17T13:35:10.577Z,100807.53
2022-09-17T13:37:39.971Z,100824.00
2022-09-17T13:40:26.012Z,100822.28
2022-09-17T13:42:59.617Z,100822.31
2022-09-17T13:45:27.241Z,100818.34
2022-09-17T13:47:56.606Z,100825.84
2022-09-17T13:50:41.326Z,100818.03
2022-09-17T13:53:14.799Z,100818.75
2022-09-17T13:56:06.945Z,100820.75
2022-09-17T13:58:36.913Z,100826.34
2022-09-17T14:01:12.245Z,100831.06
2022-09-17T14:03:44.619Z,100828.41
2022-09-17T14:06:12.221Z,100835.03
2022-09-17T14:08:45.744Z,100836.25
2022-09-17T14:11:32.659Z,100841.69
2022-09-17T14:14:06.410Z,100849.19
2022-09-17T14:16:47.459Z,100845.13
2022-09-17T14:19:16.123Z,100843.28
2022-09-17T14:21:57.615Z,100836.09
2022-09-17T14:24:30.115Z,100847.50
2022-09-17T14:27:24.546Z,100852.22
2022-09-17T14:30:18.995Z,100842.81
2022-09-17T14:32:52.249Z,100843.78
2022-09-17T14:35:44.629Z,100841.44
2022-09-17T14:38:33.228Z,100845.31
2022-09-17T14:41:05.688Z,100842.19
2022-09-17T14:43:42.554Z,100846.41
2022-09-17T14:46:18.133Z,100850.59
2022-09-17T14:48:45.624Z,100848.56
2022-09-17T14:51:25.743Z,100858.38
2022-09-17T14:54:09.838Z,100851.16
2022-09-17T14:56:44.408Z,100860.00
2022-09-17T14:59:38.143Z,100857.97
2022-09-17T15:02:27.560Z,100849.94
2022-09-17T15:04:55.371Z,100857.34
2022-09-17T15:07:23.667Z,100860.19
2022-09-17T15:09:55.427Z,100865.44
2022-09-17T15:12:30.293Z,100864.47
2022-09-17T15:14:58.635Z,100867.25
2022-09-17T15:17:26.282Z,100866.78
2022-09-17T15:19:58.135Z,100866.59
2022-09-17T15:22:32.681Z,100866.63
2022-09-17T15:25:10.526Z,100874.00
2022-09-17T15:27:44.048Z,100879.78
2022-09-17T15:30:14.476Z,100878.16
2022-09-17T15:32:49.422Z,100875.75
2022-09-17T15:35:18.929Z,100871.44
2022-09-17T15:40:43.145Z,100872.34
2022-09-17T15:43:31.856Z,100879.94
2022-09-17T15:46:27.135Z,100878.38
2022-09-17T15:48:58.082Z,100880.59
2022-09-17T15:51:35.002Z,100877.06
2022-09-17T15:54:05.772Z,100893.13
2022-09-17T15:56:35.924Z,100896.94
2022-09-17T15:59:23.426Z,100896.19
2022-09-17T16:01:54.016Z,100904.06
2022-09-17T16:04:31.173Z,100899.22
2022-09-17T16:07:24.535Z,100895.16
2022-09-17T16:09:55.228Z,100906.53
2022-09-17T16:12:25.212Z,100905.47
2022-09-17T16:14:54.927Z,100914.41
2022-09-17T16:17:33.343Z,100915.78
2022-09-17T16:20:06.438Z,100928.03
2022-09-17T16:22:35.486Z,100928.56
2022-09-17T16:25:03.083Z,100934.78
2022-09-17T16:27:43.105Z,100929.66
2022-09-17T16:30:15.681Z,100922.63
2022-09-17T16:32:43.321Z,100931.84
2022-09-17T16:35:19.751Z,100922.63
2022-09-17T16:37:52.937Z,100932.94
2022-09-17T16:40:21.843Z,100931.88
2022-09-17T16:42:49.815Z,100937.84
2022-09-17T16:45:17.549Z,100943.25
2022-09-17T16:47:45.396Z,100949.25
2022-09-17T16:50:15.951Z,100933.50
2022-09-17T16:52:44.974Z,100934.31
2022-09-17T16:55:17.254Z,100938.94
2022-09-17T16:57:44.997Z,100940.31
2022-09-17T17:00:16.864Z,100944.91
2022-09-17T17:02:45.166Z,100943.81
2022-09-17T17:05:12.843Z,100945.97
2022-09-17T17:07:40.454Z,100947.06
2022-09-17T17:10:09.377Z,100947.38
2022-09-17T17:12:38.605Z,100948.72
2022-09-17T17:15:10.315Z,100952.22
2022-09-17T17:17:40.963Z,100948.72
2022-09-17T17:20:10.450Z,100944.91
2022-09-17T17:22:38.128Z,100953.03
2022-09-17T17:25:07.203Z,100944.38
2022-09-17T17:27:35.560Z,100944.94
2022-09-17T17:30:07.080Z,100945.97
2022-09-17T17:32:36.470Z,100944.63
2022-09-17T17:35:04.977Z,100941.63
2022-09-17T17:37:33.893Z,100948.41
2022-09-17T17:40:04.514Z,100944.34
2022-09-17T17:42:37.446Z,100944.88
2022-09-17T17:45:06.807Z,100953.56
2022-09-17T17:47:34.823Z,100964.91
2022-09-17T17:50:02.603Z,100968.16
2022-09-17T17:52:32.105Z,100969.25
2022-09-17T17:54:59.621Z,100968.69
2022-09-17T17:57:27.060Z,100964.91
2022-09-17T17:59:57.446Z,100949.72
2022-09-17T18:02:25.040Z,100957.28
2022-09-17T18:04:52.641Z,100963.25
2022-09-17T18:07:20.077Z,100965.97
2022-09-17T18:09:47.682Z,100969.19
2022-09-17T18:12:15.379Z,100970.28
2022-09-17T18:14:42.853Z,100964.31
2022-09-17T18:17:10.380Z,100966.47
2022-09-17T18:19:37.854Z,100955.06
2022-09-17T18:22:05.335Z,100955.63
2022-09-17T18:24:33.077Z,100959.97
2022-09-17T18:27:00.548Z,100966.47
2022-09-17T18:29:29.311Z,100958.06
2022-09-17T18:31:56.803Z,100965.06
2022-09-17T18:34:24.585Z,100968.06
2022-09-17T18:36:52.627Z,100971.84
2022-09-17T18:39:57.121Z,100964.50
2022-09-17T18:42:09.925Z,100967.72
2022-09-17T18:44:37.469Z,100964.78
2022-09-17T18:47:05.051Z,100973.97
2022-09-17T18:49:32.747Z,100976.97
2022-09-17T18:52:01.246Z,100982.91
2022-09-17T18:54:28.716Z,100981.78
2022-09-17T18:56:56.246Z,100990.97
2022-09-17T18:59:23.765Z,100985.03
2022-09-17T19:01:51.262Z,100995.03
2022-09-17T19:04:18.755Z,100984.66
2022-09-17T19:06:46.308Z,100999.34
2022-09-17T19:09:13.939Z,100988.44
2022-09-17T19:11:41.375Z,100992.22
2022-09-17T19:14:10.777Z,100988.94
2022-09-17T19:16:38.399Z,100996.50
2022-09-17T19:19:07.048Z,100996.19
2022-09-17T19:21:34.793Z,100984.50
2022-09-17T19:24:03.637Z,100998.06
2022-09-17T19:26:31.081Z,100995.63
2022-09-17T19:29:00.637Z,101003.50
2022-09-17T19:31:28.763Z,101004.88
2022-09-17T19:33:57.145Z,101004.03
2022-09-17T19:36:24.739Z,100991.00
2022-09-17T19:38:52.522Z,100990.47
2022-09-17T19:41:23.456Z,101007.22
2022-09-17T19:43:52.776Z,100995.56
2022-09-17T19:46:22.536Z,101006.13
2022-09-17T19:48:54.665Z,100998.22
2022-09-17T19:51:25.293Z,101006.00
2022-09-17T19:53:53.360Z,101003.28
2022-09-17T19:56:23.129Z,101013.31
2022-09-17T19:58:50.834Z,101012.75
2022-09-17T20:01:19.445Z,101011.09
2022-09-17T20:03:47.156Z,101016.56
2022-09-17T20:06:17.278Z,101012.75
2022-09-17T20:08:49.568Z,101018.69
2022-09-17T20:11:18.553Z,101018.13
2022-09-17T20:13:46.021Z,101018.38
2022-09-17T20:16:17.138Z,101022.41
2022-09-17T20:18:44.821Z,101021.34
2022-09-17T20:21:18.592Z,101009.72
2022-09-17T20:23:46.249Z,101008.06
2022-09-17T20:26:14.434Z,101014.03
2022-09-17T20:28:42.365Z,101008.63
2022-09-17T20:31:21.785Z,101013.47
2022-09-17T20:33:53.330Z,101019.13
2022-09-17T20:36:23.026Z,101018.59
2022-09-17T20:41:42.486Z,101016.16
2022-09-17T20:44:09.954Z,101014.53
2022-09-17T20:46:37.654Z,101010.50
2022-09-17T20:49:05.721Z,101002.66
2022-09-17T20:51:34.184Z,101002.16
2022-09-17T20:54:02.140Z,101004.34
2022-09-17T20:56:33.413Z,100997.06
2022-09-17T20:59:23.552Z,100995.44
2022-09-17T21:01:53.700Z,100998.13
2022-09-17T21:04:22.376Z,101004.31
2022-09-17T21:06:52.983Z,101007.56
2022-09-17T21:09:20.632Z,101004.31
2022-09-17T21:11:49.367Z,101009.72
2022-09-17T21:14:18.527Z,101009.72
2022-09-17T21:16:46.880Z,101003.47
2022-09-17T21:19:16.399Z,101002.94
2022-09-17T21:21:44.455Z,101004.81
2022-09-17T21:24:12.516Z,100999.94
2022-09-17T21:26:40.070Z,101002.09
2022-09-17T21:29:07.585Z,101004.22
2022-09-17T21:31:37.222Z,101000.16
2022-09-17T21:34:11.149Z,101003.13
2022-09-17T21:36:40.258Z,101003.13
2022-09-17T21:39:12.089Z,101000.94
2022-09-17T21:41:42.635Z,100997.09
2022-09-17T21:44:12.238Z,101001.94
2022-09-17T21:46:41.223Z,101003.56
2022-09-17T21:49:09.354Z,100998.31
2022-09-17T21:51:42.596Z,100998.84
2022-09-17T21:54:13.205Z,101005.00
2022-09-17T21:56:40.683Z,100999.03
2022-09-17T21:59:11.302Z,101001.69
2022-09-17T22:01:47.141Z,101004.66
2022-09-17T22:04:20.666Z,101010.56
2022-09-17T22:06:49.845Z,101002.16
2022-09-17T22:09:20.640Z,100996.19
2022-09-17T22:11:48.741Z,100996.69
2022-09-17T22:14:19.858Z,100990.16
2022-09-17T22:16:50.735Z,100989.06
2022-09-17T22:19:19.793Z,100985.47
2022-09-17T22:21:51.479Z,100987.06
2022-09-17T22:24:20.719Z,101001.63
2022-09-17T22:26:56.439Z,101008.91
2022-09-17T22:29:25.321Z,101009.41
2022-09-17T22:31:53.006Z,101009.66
2022-09-17T22:34:22.608Z,101021.53
2022-09-17T22:36:50.497Z,101022.06
2022-09-17T22:39:21.048Z,101020.34
2022-09-17T22:41:48.718Z,101015.72
2022-09-17T22:44:18.526Z,101021.66
2022-09-17T22:46:48.105Z,101010.25
2022-09-17T22:49:16.064Z,101019.16
2022-09-17T22:51:44.865Z,101021.28
2022-09-17T22:54:14.101Z,101015.06
2022-09-17T22:56:45.320Z,101008.84
2022-09-17T22:59:13.039Z,101001.84
2022-09-17T23:01:41.494Z,100994.50
2022-09-17T23:04:09.900Z,101002.09
2022-09-17T23:06:38.898Z,100999.66
2022-09-17T23:09:07.462Z,100996.97
2022-09-17T23:11:37.583Z,100988.28
2022-09-17T23:14:12.290Z,100987.47
2022-09-17T23:16:42.689Z,100979.84
2022-09-17T23:19:10.895Z,100989.84
2022-09-17T23:21:38.994Z,100988.22
2022-09-17T23:24:06.794Z,100987.69
2022-09-17T23:26:34.811Z,100979.00
2022-09-17T23:29:05.356Z,100977.06
2022-09-17T23:31:35.289Z,100975.41
2022-09-17T23:34:05.208Z,100978.69
2022-09-17T23:36:35.976Z,100991.59
2022-09-17T23:39:05.008Z,100984.50
2022-09-17T23:41:37.945Z,100988.00
2022-09-17T23:44:13.786Z,100986.56
2022-09-17T23:46:43.118Z,100987.38
2022-09-17T23:49:12.593Z,100986.00
2022-09-17T23:51:40.416Z,100987.06
2022-09-17T23:54:08.031Z,100975.13
2022-09-17T23:56:35.868Z,100983.75
2022-09-17T23:59:04.302Z,101006.84
